Time;durP1;ratioP1;P1;durP2;ratioP2;P2;SDS_P1;SDS_P2;PMS_P1;PMS_P2;Temp;Humidity;BMP_temperature;BMP_pressure;BME280_temperature;BME280_humidity;BME280_pressure;Samples;Min_cycle;Max_cycle;Signal;HPM_P1;HPM_P2
2021/05/24 00:00:26;;;;;;;8.13;3.70;;;;;;;15.27;63.47;100502.28;1798158;78;21345;-69
2021/05/24 00:02:54;;;;;;;5.97;3.27;;;;;;;15.28;63.72;100525.40;1798535;78;21509;-69
2021/05/24 00:05:26;;;;;;;5.23;2.83;;;;;;;15.28;63.72;100525.40;1817815;78;22157;-70
2021/05/24 00:07:53;;;;;;;6.70;3.17;;;;;;;15.29;63.39;100538.30;1801738;78;21408;-69
2021/05/24 00:10:25;;;;;;;6.73;3.53;;;;;;;15.25;64.07;100534.84;1795897;78;21434;-69
2021/05/24 00:12:54;;;;;;;5.77;3.30;;;;;;;15.25;64.07;100534.84;1815370;78;22038;-70
2021/05/24 00:15:26;;;;;;;8.17;3.67;;;;;;;15.25;64.09;100541.57;1802933;78;21536;-69
2021/05/24 00:17:53;;;;;;;7.07;3.70;;;;;;;15.23;64.40;100540.25;1804717;78;21406;-69
2021/05/24 00:20:27;;;;;;;5.70;3.87;;;;;;;15.19;64.57;100543.27;1798096;78;21371;-70
2021/05/24 00:22:56;;;;;;;7.80;4.60;;;;;;;15.16;64.96;100540.59;1803824;78;21294;-68
2021/05/24 00:25:25;;;;;;;7.70;4.40;;;;;;;15.10;65.58;100541.75;1795726;78;21378;-69
2021/05/24 00:27:52;;;;;;;6.70;4.30;;;;;;;15.06;67.04;100568.17;1797972;78;21489;-69
2021/05/24 00:30:21;;;;;;;7.47;4.60;;;;;;;15.03;67.10;100566.85;1804816;78;21484;-68
2021/05/24 00:32:49;;;;;;;7.33;4.57;;;;;;;15.03;67.10;100566.85;1796017;78;21427;-70
2021/05/24 00:35:17;;;;;;;8.23;4.37;;;;;;;15.00;67.66;100560.70;1801639;78;21448;-70
2021/05/24 00:37:44;;;;;;;6.10;4.10;;;;;;;14.98;67.78;100569.61;1797368;78;21888;-69
2021/05/24 00:40:13;;;;;;;5.80;4.33;;;;;;;14.98;67.97;100562.89;1798390;78;21353;-69
2021/05/24 00:42:40;;;;;;;7.47;4.50;;;;;;;14.98;68.15;100565.58;1798320;78;21267;-69
2021/05/24 00:45:08;;;;;;;5.90;4.10;;;;;;;14.96;68.44;100572.57;1798450;78;21337;-68
2021/05/24 00:47:35;;;;;;;7.03;4.50;;;;;;;14.96;68.56;100577.16;1793039;78;22129;-70
2021/05/24 00:50:05;;;;;;;7.70;4.53;;;;;;;14.96;68.73;100586.02;1798235;78;21315;-70
2021/05/24 00:52:31;;;;;;;6.43;4.13;;;;;;;14.85;69.61;100583.19;1791218;78;21889;-69
2021/05/24 00:54:59;;;;;;;6.77;4.10;;;;;;;14.85;69.61;100583.19;1796164;78;21975;-70
2021/05/24 00:57:26;;;;;;;6.07;3.93;;;;;;;14.80;69.60;100581.88;1786453;78;21396;-70
2021/05/24 00:59:55;;;;;;;8.53;4.27;;;;;;;14.78;69.83;100583.52;1785976;79;21427;-69
2021/05/24 01:02:22;;;;;;;6.70;4.10;;;;;;;14.78;70.08;100588.91;1792750;78;21281;-69
2021/05/24 01:04:49;;;;;;;6.53;4.03;;;;;;;14.78;70.47;100588.11;1796017;78;21923;-71
2021/05/24 01:07:16;;;;;;;5.93;3.80;;;;;;;14.77;71.03;100581.94;1805943;78;21862;-70
2021/05/24 01:09:43;;;;;;;5.40;3.50;;;;;;;14.77;71.43;100587.31;1794593;78;21458;-69
2021/05/24 01:12:12;;;;;;;7.43;3.90;;;;;;;14.80;71.65;100586.47;1808989;77;21322;-71
2021/05/24 01:14:39;;;;;;;5.00;3.43;;;;;;;14.82;71.92;100588.34;1781099;78;22025;-70
2021/05/24 01:17:05;;;;;;;6.57;3.33;;;;;;;14.85;72.19;100589.12;1779192;79;21284;-69
2021/05/24 01:19:34;;;;;;;6.03;3.40;;;;;;;14.86;72.37;100589.36;1806295;77;21305;-70
2021/05/24 01:22:01;;;;;;;6.33;3.20;;;;;;;14.87;72.60;100591.78;1808374;78;21282;-69
2021/05/24 01:24:28;;;;;;;5.20;3.70;;;;;;;14.88;72.78;100593.37;1798821;78;22052;-69
2021/05/24 01:26:55;;;;;;;5.27;3.30;;;;;;;14.89;73.24;100596.31;1812673;78;21357;-70
2021/05/24 01:29:22;;;;;;;5.20;3.00;;;;;;;14.88;73.71;100593.92;1810165;77;21682;-69
2021/05/24 01:31:49;;;;;;;5.73;3.20;;;;;;;14.86;74.00;100598.23;1811685;77;21467;-69
2021/05/24 01:34:17;;;;;;;5.40;3.00;;;;;;;14.85;74.16;100595.84;1794421;78;21320;-69
2021/05/24 01:36:44;;;;;;;5.00;3.00;;;;;;;14.83;74.48;100602.03;1790064;78;21534;-69
2021/05/24 01:39:11;;;;;;;5.43;2.70;;;;;;;14.80;74.47;100595.88;1781906;78;21490;-71
2021/05/24 01:41:38;;;;;;;5.00;2.67;;;;;;;14.70;74.63;100597.56;1769647;78;21372;-70
2021/05/24 01:44:07;;;;;;;4.87;2.60;;;;;;;14.70;74.63;100597.56;1793432;78;22017;-70
2021/05/24 01:46:33;;;;;;;4.20;2.67;;;;;;;14.61;74.73;100597.95;1767687;80;21326;-70
2021/05/24 01:49:01;;;;;;;5.20;3.13;;;;;;;14.51;75.01;100596.66;1799900;78;21911;-70
2021/05/24 01:51:28;;;;;;;4.10;3.00;;;;;;;14.47;75.42;100604.46;1819082;78;21276;-69
2021/05/24 01:53:55;;;;;;;6.50;3.47;;;;;;;14.40;75.77;100597.81;1795516;79;21422;-70
2021/05/24 01:56:21;;;;;;;5.87;3.07;;;;;;;14.34;76.08;100597.59;1793813;78;21331;-69
2021/05/24 01:58:48;;;;;;;6.03;3.17;;;;;;;14.32;76.54;100600.57;1777466;79;21380;-69
2021/05/24 02:01:15;;;;;;;5.40;3.53;;;;;;;14.28;76.61;100600.33;1792107;78;21295;-68
2021/05/24 02:03:44;;;;;;;5.80;3.37;;;;;;;14.23;76.91;100601.70;1810737;77;21253;-70
2021/05/24 02:06:11;;;;;;;5.40;3.63;;;;;;;14.18;77.29;100611.67;1811306;78;21373;-69
2021/05/24 02:08:40;;;;;;;5.60;3.40;;;;;;;14.08;77.78;100605.83;1792607;78;21265;-70
2021/05/24 02:11:06;;;;;;;5.53;3.17;;;;;;;14.05;78.08;100612.58;1761693;80;21929;-70
2021/05/24 02:13:33;;;;;;;5.13;3.23;;;;;;;13.98;78.48;100615.30;1798105;78;21287;-70
2021/05/24 02:16:02;;;;;;;5.40;3.30;;;;;;;13.90;79.05;100619.92;1799098;78;21076;-70
2021/05/24 02:18:30;;;;;;;4.47;2.93;;;;;;;13.83;79.54;100628.28;1793645;78;21314;-69
2021/05/24 02:20:57;;;;;;;6.10;3.00;;;;;;;13.77;79.90;100630.17;1803381;78;21314;-69
2021/05/24 02:23:24;;;;;;;4.90;2.80;;;;;;;13.71;80.30;100637.19;1798335;78;21396;-70
2021/05/24 02:25:51;;;;;;;4.37;2.57;;;;;;;13.67;80.67;100640.97;1796539;79;21302;-69
2021/05/24 02:28:18;;;;;;;4.43;2.87;;;;;;;13.66;80.92;100641.26;1799462;78;21731;-70
2021/05/24 02:30:45;;;;;;;4.00;2.57;;;;;;;13.64;81.23;100644.74;1808263;78;21669;-69
2021/05/24 02:33:12;;;;;;;4.17;2.40;;;;;;;13.59;81.48;100642.89;1805401;78;21336;-69
2021/05/24 02:35:39;;;;;;;5.30;2.30;;;;;;;13.55;81.67;100648.52;1798691;78;21817;-68
2021/05/24 02:38:06;;;;;;;5.80;2.30;;;;;;;13.49;81.98;100649.61;1814972;78;21270;-70
2021/05/24 02:40:33;;;;;;;3.60;2.20;;;;;;;13.41;82.24;100650.99;1796671;78;21327;-69
2021/05/24 02:43:02;;;;;;;5.53;2.30;;;;;;;13.41;82.48;100646.17;1771124;79;21560;-70
2021/05/24 02:45:28;;;;;;;5.20;2.40;;;;;;;13.37;82.67;100649.39;1790534;78;21270;-69
2021/05/24 02:47:57;;;;;;;4.27;2.60;;;;;;;13.40;82.80;100644.57;1781837;79;21246;-70
2021/05/24 02:50:24;;;;;;;6.27;2.40;;;;;;;13.38;82.87;100648.85;1813781;77;21173;-69
2021/05/24 02:52:53;;;;;;;3.83;1.93;;;;;;;13.34;82.68;100645.92;1798134;78;21298;-69
2021/05/24 02:55:20;;;;;;;4.50;2.10;;;;;;;13.29;82.58;100637.07;1772920;79;21353;-68
2021/05/24 02:57:47;;;;;;;3.27;2.17;;;;;;;13.24;82.72;100641.09;1791620;78;21430;-69
2021/05/24 03:00:15;;;;;;;4.30;2.27;;;;;;;13.18;82.89;100640.30;1816911;77;22066;-69
2021/05/24 03:02:46;;;;;;;4.20;2.30;;;;;;;13.13;83.06;100640.32;1800805;78;21307;-69
2021/05/24 03:05:19;;;;;;;2.95;2.00;;;;;;;13.07;83.31;100645.42;1793867;78;21305;-68
2021/05/24 03:07:46;;;;;;;4.83;2.53;;;;;;;12.97;83.55;100650.27;1764845;80;21136;-68
2021/05/24 03:10:14;;;;;;;5.90;2.27;;;;;;;12.92;83.87;100652.94;1762736;80;21390;-69
2021/05/24 03:12:41;;;;;;;5.00;2.27;;;;;;;12.88;84.20;100646.52;1762117;80;21092;-70
2021/05/24 03:15:10;;;;;;;3.07;2.13;;;;;;;12.84;84.46;100648.94;1759114;80;22819;-69
2021/05/24 03:17:38;;;;;;;4.13;2.20;;;;;;;12.82;84.70;100646.25;1759808;80;21786;-67
2021/05/24 03:20:07;;;;;;;4.57;2.10;;;;;;;12.79;84.96;100647.59;1812668;77;21796;-68
2021/05/24 03:22:34;;;;;;;4.83;2.03;;;;;;;12.74;85.23;100644.13;1814028;77;21340;-68
2021/05/24 03:25:01;;;;;;;4.10;2.13;;;;;;;12.66;85.51;100644.91;1795659;78;21438;-68
2021/05/24 03:27:28;;;;;;;4.93;2.77;;;;;;;12.62;85.80;100647.06;1800849;78;21497;-69
2021/05/24 03:29:55;;;;;;;4.43;2.27;;;;;;;12.59;86.11;100643.58;1769884;79;21265;-68
2021/05/24 03:32:22;;;;;;;5.07;2.10;;;;;;;12.55;86.47;100642.52;1795956;78;21287;-70
2021/05/24 03:34:49;;;;;;;5.10;2.03;;;;;;;12.55;86.72;100644.66;1800778;78;21788;-70
2021/05/24 03:37:18;;;;;;;3.77;1.70;;;;;;;12.56;87.07;100645.45;1807418;77;48937;-69
2021/05/24 03:39:45;;;;;;;3.67;2.07;;;;;;;12.54;87.28;100641.72;1801047;78;21274;-68
2021/05/24 03:42:11;;;;;;;4.10;2.10;;;;;;;12.52;87.44;100641.70;1795038;79;21362;-68
2021/05/24 03:44:42;;;;;;;4.27;2.03;;;;;;;12.52;87.59;100630.45;1754552;79;21384;-68
2021/05/24 03:47:07;;;;;;;5.63;2.27;;;;;;;12.53;87.74;100632.05;1779548;79;21242;-68
2021/05/24 03:49:34;;;;;;;3.67;1.90;;;;;;;12.51;87.82;100624.83;1779482;79;21503;-68
2021/05/24 03:52:01;;;;;;;3.67;1.90;;;;;;;12.47;87.91;100634.48;1781928;79;21400;-67
2021/05/24 03:54:28;;;;;;;4.53;2.37;;;;;;;12.42;88.33;100619.73;1781852;79;21287;-68
2021/05/24 03:56:56;;;;;;;3.33;2.00;;;;;;;12.35;88.55;100628.03;1776417;79;21282;-69
2021/05/24 03:59:23;;;;;;;3.33;2.00;;;;;;;12.29;88.96;100639.81;1778293;79;21366;-69
2021/05/24 04:01:51;;;;;;;4.00;2.20;;;;;;;12.24;89.20;100649.19;1798970;78;21831;-69
2021/05/24 04:04:18;;;;;;;3.83;2.30;;;;;;;12.21;89.50;100647.05;1798101;78;21256;-69
2021/05/24 04:06:53;;;;;;;4.10;2.10;;;;;;;12.21;89.92;100651.06;1785255;78;21218;-69
2021/05/24 04:09:15;;;;;;;7.23;2.13;;;;;;;12.20;90.06;100650.77;1780569;78;21337;-68
2021/05/24 04:11:42;;;;;;;2.87;1.90;;;;;;;12.19;90.17;100649.17;1776364;79;21283;-69
2021/05/24 04:14:08;;;;;;;2.83;1.60;;;;;;;12.18;90.18;100648.91;1802102;78;21313;-67
2021/05/24 04:16:35;;;;;;;4.07;2.13;;;;;;;12.16;90.23;100633.09;1794069;78;21901;-69
2021/05/24 04:19:09;;;;;;;3.47;1.90;;;;;;;12.17;90.36;100642.75;1773865;79;21826;-70
2021/05/24 04:21:36;;;;;;;5.65;2.37;;;;;;;12.17;90.40;100649.95;1795529;78;21283;-68
2021/05/24 04:24:05;;;;;;;3.53;1.70;;;;;;;12.18;90.65;100643.02;1780441;79;21131;-68
2021/05/24 04:26:33;;;;;;;3.17;1.80;;;;;;;12.17;90.53;100643.27;1794648;78;21370;-69
2021/05/24 04:29:00;;;;;;;3.93;1.93;;;;;;;12.16;90.35;100647.02;1786735;78;21291;-68
2021/05/24 04:31:28;;;;;;;2.90;1.72;;;;;;;12.13;90.31;100648.88;1782492;78;21292;-68
2021/05/24 04:33:54;;;;;;;3.95;1.82;;;;;;;12.12;90.45;100653.98;1790765;78;21146;-68
2021/05/24 04:36:21;;;;;;;4.00;1.50;;;;;;;12.11;90.54;100649.67;1790806;78;21051;-67
2021/05/24 04:38:49;;;;;;;2.40;1.60;;;;;;;12.08;90.60;100651.03;1766693;79;21326;-67
2021/05/24 04:41:15;;;;;;;2.53;1.60;;;;;;;12.06;90.61;100647.00;1785567;79;21620;-69
2021/05/24 04:43:43;;;;;;;4.20;1.75;;;;;;;12.02;90.79;100661.45;1798251;79;21703;-68
2021/05/24 04:46:10;;;;;;;3.33;1.60;;;;;;;11.99;90.91;100657.16;1787606;78;21680;-66
2021/05/24 04:48:37;;;;;;;4.40;1.72;;;;;;;11.97;90.98;100663.56;1765120;79;21168;-69
2021/05/24 04:51:04;;;;;;;2.85;1.55;;;;;;;11.96;90.92;100671.87;1779168;79;21128;-68
2021/05/24 04:53:32;;;;;;;3.03;1.63;;;;;;;11.96;90.98;100686.05;1796445;78;21085;-67
2021/05/24 04:56:01;;;;;;;2.27;1.30;;;;;;;11.95;91.16;100679.64;1773971;79;21852;-68
2021/05/24 04:58:27;;;;;;;4.53;1.65;;;;;;;11.93;91.19;100690.59;1792975;78;21578;-67
2021/05/24 05:00:54;;;;;;;3.10;1.50;;;;;;;11.94;91.17;100684.70;1798691;77;21098;-67
2021/05/24 05:03:21;;;;;;;3.50;1.60;;;;;;;11.95;91.15;100687.67;1783957;79;21695;-68
2021/05/24 05:05:48;;;;;;;4.70;1.90;;;;;;;11.94;90.87;100694.07;1793205;78;22145;-68
2021/05/24 05:08:15;;;;;;;2.67;1.30;;;;;;;11.94;90.89;100689.55;1793354;78;21776;-68
2021/05/24 05:10:42;;;;;;;2.27;1.50;;;;;;;11.92;90.71;100688.98;1797545;78;21428;-68
2021/05/24 05:13:09;;;;;;;3.15;1.47;;;;;;;11.92;90.57;100690.87;1812738;77;21246;-67
2021/05/24 05:15:37;;;;;;;3.37;1.60;;;;;;;11.92;90.42;100699.70;1795327;78;21941;-67
2021/05/24 05:18:04;;;;;;;3.45;1.50;;;;;;;11.92;90.28;100707.73;1774654;79;21348;-69
2021/05/24 05:20:32;;;;;;;2.98;1.65;;;;;;;11.91;90.33;100707.47;1802332;78;21038;-68
2021/05/24 05:23:00;;;;;;;4.23;1.80;;;;;;;11.91;90.32;100716.00;1790515;79;21074;-68
2021/05/24 05:25:27;;;;;;;2.72;1.60;;;;;;;11.90;90.36;100713.86;1779191;79;21286;-66
2021/05/24 05:27:54;;;;;;;3.30;1.70;;;;;;;11.90;90.46;100719.22;1779122;78;21065;-68
2021/05/24 05:30:21;;;;;;;3.77;1.87;;;;;;;11.90;90.42;100715.20;1802556;78;21339;-68
2021/05/24 05:32:48;;;;;;;2.75;1.75;;;;;;;11.90;90.47;100712.53;1794826;78;21027;-68
2021/05/24 05:35:16;;;;;;;3.20;2.00;;;;;;;11.91;90.52;100720.85;1799210;78;21119;-68
2021/05/24 05:37:46;;;;;;;3.87;2.30;;;;;;;11.91;90.46;100722.19;1809485;77;21114;-67
2021/05/24 05:40:17;;;;;;;3.00;1.70;;;;;;;11.94;90.51;100724.34;1794543;78;21172;-67
2021/05/24 05:42:47;;;;;;;3.33;1.80;;;;;;;11.96;90.47;100726.20;1752689;80;21323;-71
2021/05/24 05:45:15;;;;;;;3.72;1.70;;;;;;;11.96;90.21;100733.44;1798771;78;21135;-73
2021/05/24 05:47:43;;;;;;;4.33;2.20;;;;;;;11.94;90.10;100735.05;1797777;78;22468;-74
2021/05/24 05:50:11;;;;;;;3.50;2.05;;;;;;;11.94;90.14;100739.58;1798665;78;21142;-73
2021/05/24 05:52:38;;;;;;;3.60;2.10;;;;;;;11.95;90.09;100746.02;1799434;78;21592;-72
2021/05/24 05:55:07;;;;;;;6.93;3.20;;;;;;;11.97;90.16;100748.42;1809595;77;21757;-71
2021/05/24 05:57:34;;;;;;;4.80;2.20;;;;;;;11.97;90.17;100738.52;1795663;78;21397;-72
2021/05/24 06:00:03;;;;;;;6.33;2.30;;;;;;;11.99;90.29;100746.30;1807252;77;21865;-71
2021/05/24 06:02:32;;;;;;;4.05;2.22;;;;;;;11.98;90.40;100758.09;1796091;79;21322;-72
2021/05/24 06:04:59;;;;;;;5.00;2.40;;;;;;;11.99;90.60;100755.67;1789045;79;21089;-72
2021/05/24 06:07:26;;;;;;;4.67;2.47;;;;;;;11.96;90.49;100759.67;1784125;79;21596;-72
2021/05/24 06:09:53;;;;;;;2.87;1.87;;;;;;;11.95;90.45;100763.95;1777122;79;21283;-72
2021/05/24 06:12:20;;;;;;;4.37;2.20;;;;;;;11.93;90.03;100762.06;1812106;78;21773;-73
2021/05/24 06:14:47;;;;;;;4.47;2.20;;;;;;;11.88;89.94;100762.86;1812711;79;21072;-73
2021/05/24 06:17:14;;;;;;;3.13;1.87;;;;;;;11.84;89.76;100772.45;1797733;78;21348;-72
2021/05/24 06:19:41;;;;;;;3.77;1.87;;;;;;;11.80;89.51;100772.67;1791633;78;21633;-72
2021/05/24 06:22:08;;;;;;;3.37;1.45;;;;;;;11.78;89.26;100775.33;1775770;79;21250;-72
2021/05/24 06:24:34;;;;;;;3.57;1.93;;;;;;;11.74;89.01;100781.20;1807632;77;21064;-75
2021/05/24 06:27:01;;;;;;;2.22;1.37;;;;;;;11.71;88.74;100788.42;1804003;78;21114;-73
2021/05/24 06:29:28;;;;;;;3.15;1.50;;;;;;;11.69;88.38;100785.20;1797563;78;22105;-75
2021/05/24 06:31:55;;;;;;;2.50;1.57;;;;;;;11.66;88.04;100791.59;1799325;78;21016;-73
2021/05/24 06:34:22;;;;;;;3.70;1.40;;;;;;;11.64;88.08;100795.84;1814360;78;20981;-75
2021/05/24 06:36:48;;;;;;;2.80;1.30;;;;;;;11.64;88.01;100796.39;1798159;78;20989;-74
2021/05/24 06:39:17;;;;;;;3.27;1.20;;;;;;;11.63;87.99;100802.81;1788438;78;21048;-73
2021/05/24 06:41:44;;;;;;;2.45;1.30;;;;;;;11.63;87.72;100805.48;1786400;78;21728;-73
2021/05/24 06:44:11;;;;;;;2.83;1.25;;;;;;;11.62;87.69;100803.88;1792698;79;21057;-73
2021/05/24 06:46:38;;;;;;;2.17;1.30;;;;;;;11.63;87.75;100812.17;1795442;78;21572;-73
2021/05/24 06:49:05;;;;;;;2.92;1.42;;;;;;;11.63;87.53;100808.16;1795120;78;21120;-72
2021/05/24 06:51:35;;;;;;;3.50;1.57;;;;;;;11.63;87.11;100814.85;1734115;80;22466;-74
2021/05/24 06:54:03;;;;;;;3.08;1.22;;;;;;;11.63;87.11;100818.87;1759707;80;21957;-74
2021/05/24 06:56:30;;;;;;;2.92;1.10;;;;;;;11.66;87.12;100823.17;1761858;80;20992;-74
2021/05/24 06:58:57;;;;;;;1.90;1.10;;;;;;;11.68;86.83;100832.27;1759103;80;21155;-73
2021/05/24 07:01:25;;;;;;;2.05;1.10;;;;;;;11.72;86.94;100831.51;1753598;80;21152;-74
2021/05/24 07:03:52;;;;;;;1.92;1.00;;;;;;;11.77;86.61;100836.61;1752384;80;21033;-72
2021/05/24 07:06:19;;;;;;;2.62;1.07;;;;;;;11.80;86.08;100839.58;1753702;80;21299;-72
2021/05/24 07:08:46;;;;;;;2.90;1.30;;;;;;;11.83;85.99;100833.71;1761183;80;21468;-72
2021/05/24 07:11:13;;;;;;;1.67;1.10;;;;;;;11.85;85.83;100843.67;1761711;80;21052;-72
2021/05/24 07:13:41;;;;;;;2.27;1.20;;;;;;;11.87;85.37;100844.20;1735819;80;21952;-71
2021/05/24 07:16:08;;;;;;;2.13;1.00;;;;;;;11.92;85.13;100844.78;1754870;80;21143;-72
2021/05/24 07:18:35;;;;;;;1.87;1.20;;;;;;;11.94;85.03;100846.14;1758683;80;21313;-73
2021/05/24 07:21:02;;;;;;;1.87;1.10;;;;;;;12.00;84.59;100848.83;1755564;80;21772;-74
2021/05/24 07:23:31;;;;;;;2.15;0.90;;;;;;;12.02;84.06;100848.84;1761843;80;21381;-73
2021/05/24 07:25:59;;;;;;;2.08;1.00;;;;;;;12.04;83.55;100853.93;1746537;80;21052;-75
2021/05/24 07:28:26;;;;;;;2.57;0.93;;;;;;;12.08;83.46;100857.19;1797222;78;21096;-75
2021/05/24 07:30:53;;;;;;;2.10;1.00;;;;;;;12.11;83.25;100853.16;1798427;78;21488;-74
2021/05/24 07:33:20;;;;;;;1.90;1.00;;;;;;;12.13;82.96;100855.06;1799687;78;21467;-73
2021/05/24 07:35:46;;;;;;;3.97;1.03;;;;;;;12.14;83.15;100860.67;1794259;78;21100;-71
2021/05/24 07:38:13;;;;;;;1.57;1.00;;;;;;;12.17;83.27;100860.16;1799284;78;21458;-72
2021/05/24 07:40:40;;;;;;;1.77;1.02;;;;;;;12.19;83.25;100862.06;1798264;78;21281;-72
2021/05/24 07:43:07;;;;;;;3.17;1.20;;;;;;;12.20;82.92;100865.00;1820211;78;21082;-71
2021/05/24 07:45:35;;;;;;;1.80;1.00;;;;;;;12.21;83.07;100880.02;1809598;77;21398;-69
2021/05/24 07:48:05;;;;;;;4.33;1.50;;;;;;;12.21;83.20;100874.66;1777045;79;21264;-68
2021/05/24 07:50:32;;;;;;;1.90;1.30;;;;;;;12.24;83.36;100874.66;1789282;78;21666;-68
2021/05/24 07:52:59;;;;;;;2.30;1.00;;;;;;;12.28;83.23;100879.25;1787734;79;21260;-69
2021/05/24 07:55:26;;;;;;;2.77;1.10;;;;;;;12.33;83.09;100887.30;1769498;79;21086;-69
2021/05/24 07:57:53;;;;;;;2.23;1.00;;;;;;;12.35;83.22;100895.89;1783568;79;21389;-69
2021/05/24 08:00:25;;;;;;;2.70;1.30;;;;;;;12.35;82.51;100882.50;1775171;79;21804;-69
2021/05/24 08:02:49;;;;;;;1.73;1.00;;;;;;;12.37;82.73;100887.07;1810396;77;21427;-69
2021/05/24 08:05:16;;;;;;;2.20;1.20;;;;;;;12.42;82.84;100897.80;1813998;78;21291;-70
2021/05/24 08:07:45;;;;;;;2.60;1.10;;;;;;;12.47;82.25;100893.02;1797024;78;21714;-70
2021/05/24 08:10:15;;;;;;;2.63;1.20;;;;;;;12.52;82.38;100888.20;1805631;78;21169;-68
2021/05/24 08:12:45;;;;;;;2.47;1.17;;;;;;;12.55;81.95;100886.34;1772685;79;21391;-70
2021/05/24 08:15:18;;;;;;;2.00;1.20;;;;;;;12.59;81.47;100889.56;1767632;79;21135;-69
2021/05/24 08:17:45;;;;;;;2.03;1.07;;;;;;;12.64;81.12;100889.59;1810918;78;21454;-68
2021/05/24 08:20:16;;;;;;;2.57;1.20;;;;;;;12.68;80.96;100890.67;1778253;79;21323;-68
2021/05/24 08:22:45;;;;;;;4.07;1.20;;;;;;;12.72;80.40;100888.27;1793925;78;21427;-70
2021/05/24 08:25:12;;;;;;;2.47;1.30;;;;;;;12.76;80.56;100885.33;1781664;79;21381;-69
2021/05/24 08:27:39;;;;;;;2.00;1.00;;;;;;;12.80;80.29;100897.66;1780617;79;21318;-69
2021/05/24 08:30:09;;;;;;;3.53;1.50;;;;;;;12.86;80.12;100903.32;1796673;78;21303;-69
2021/05/24 08:32:38;;;;;;;2.90;1.17;;;;;;;12.96;79.98;100897.19;1795068;78;21252;-67
2021/05/24 08:35:07;;;;;;;2.90;1.20;;;;;;;13.06;79.93;100903.40;1785426;78;21421;-70
2021/05/24 08:37:34;;;;;;;2.90;1.30;;;;;;;13.17;79.80;100897.52;1806481;78;21352;-69
2021/05/24 08:40:03;;;;;;;3.20;1.40;;;;;;;13.25;79.27;100899.69;1770938;79;21417;-69
2021/05/24 08:42:33;;;;;;;2.90;1.30;;;;;;;13.31;78.53;100907.22;1779044;79;21741;-69
2021/05/24 08:45:00;;;;;;;1.33;1.07;;;;;;;13.32;78.06;100902.91;1772082;79;21900;-69
2021/05/24 08:47:30;;;;;;;2.47;1.17;;;;;;;13.30;77.87;100927.08;1789233;79;21386;-70
2021/05/24 08:49:58;;;;;;;1.77;0.90;;;;;;;13.26;78.07;100924.63;1810403;77;21356;-70
2021/05/24 08:52:28;;;;;;;3.03;1.10;;;;;;;13.25;78.46;100930.54;1793037;78;21092;-69
2021/05/24 08:54:55;;;;;;;1.90;1.10;;;;;;;13.27;78.61;100936.45;1788806;78;21821;-69
2021/05/24 08:57:22;;;;;;;2.27;1.10;;;;;;;13.34;78.19;100936.20;1793167;78;21843;-69
2021/05/24 08:59:48;;;;;;;2.43;1.23;;;;;;;13.34;78.19;100940.22;1809186;78;21318;-68
2021/05/24 09:02:15;;;;;;;2.53;1.20;;;;;;;13.41;78.40;100946.13;1796549;78;21417;-68
2021/05/24 09:04:49;;;;;;;2.43;1.17;;;;;;;13.52;78.29;100940.23;1796114;78;21837;-68
2021/05/24 09:07:18;;;;;;;2.10;1.10;;;;;;;13.60;77.42;100941.06;1797922;78;21398;-68
2021/05/24 09:10:01;;;;;;;3.03;1.10;;;;;;;13.68;77.36;100943.20;1797770;78;22280;-67
2021/05/24 09:12:33;;;;;;;2.00;1.10;;;;;;;13.76;76.86;100945.91;1790939;78;21304;-68
2021/05/24 09:15:04;;;;;;;2.47;1.20;;;;;;;13.82;76.47;100951.55;1792955;78;21315;-68
2021/05/24 09:17:47;;;;;;;4.17;1.10;;;;;;;13.92;76.26;100946.69;1794103;78;21406;-68
2021/05/24 09:20:30;;;;;;;2.97;1.50;;;;;;;14.05;75.92;100946.97;1800561;78;21112;-68
2021/05/24 09:23:20;;;;;;;2.10;1.10;;;;;;;14.25;75.40;100946.67;1794349;78;21233;-67
2021/05/24 09:26:03;;;;;;;2.08;1.05;;;;;;;14.44;74.25;100969.72;1800661;78;21319;-69
2021/05/24 09:28:44;;;;;;;;;;;;;;;14.58;73.19;100960.05;1787289;78;21241;-68
2021/05/24 09:31:18;;;;;;;3.67;1.20;;;;;;;14.71;72.67;100964.05;1791316;78;20285;-69
2021/05/24 09:34:00;;;;;;;2.57;1.13;;;;;;;14.80;71.37;100965.61;1794182;78;21908;-71
2021/05/24 09:36:26;;;;;;;2.63;1.13;;;;;;;14.86;69.69;100969.35;1792180;78;21480;-70
2021/05/24 09:39:05;;;;;;;2.70;1.00;;;;;;;14.87;68.32;100988.46;1798361;78;21480;-69
2021/05/24 09:41:47;;;;;;;2.23;0.90;;;;;;;14.87;68.32;100988.46;1792687;78;21442;-69
2021/05/24 09:44:21;;;;;;;3.75;1.00;;;;;;;14.94;68.83;100985.48;1794804;78;22084;-69
2021/05/24 09:46:51;;;;;;;1.57;0.90;;;;;;;15.10;68.84;100991.02;1797639;78;21087;-68
2021/05/24 09:49:23;;;;;;;1.87;0.87;;;;;;;15.20;68.80;100984.27;1794704;78;21700;-70
2021/05/24 09:51:51;;;;;;;3.27;0.90;;;;;;;15.20;68.80;100973.52;1793518;78;21554;-73
2021/05/24 09:54:21;;;;;;;2.87;1.00;;;;;;;15.25;67.63;100981.54;1793922;78;21783;-71
2021/05/24 09:56:48;;;;;;;3.23;1.10;;;;;;;15.33;66.88;100996.83;1799214;79;21808;-67
2021/05/24 09:59:21;;;;;;;1.80;1.00;;;;;;;15.35;66.69;100997.38;1801961;78;21698;-69
2021/05/24 10:01:56;;;;;;;1.97;1.00;;;;;;;15.42;67.06;100995.17;1796349;79;21780;-69
2021/05/24 10:04:31;;;;;;;2.13;1.00;;;;;;;15.60;66.79;100997.77;1796108;78;21849;-68
2021/05/24 10:07:02;;;;;;;2.40;0.90;;;;;;;15.69;65.94;100990.72;1798311;78;21717;-68
2021/05/24 10:09:35;;;;;;;2.80;1.00;;;;;;;15.73;65.48;100997.69;1799935;78;21710;-67
2021/05/24 10:12:06;;;;;;;1.97;1.03;;;;;;;15.77;63.93;100996.06;1816040;78;23017;-68
2021/05/24 10:14:32;;;;;;;3.17;1.00;;;;;;;15.83;63.47;100986.86;1772665;78;21779;-67
2021/05/24 10:17:02;;;;;;;2.00;0.97;;;;;;;15.85;63.47;100975.25;1775935;78;21858;-67
2021/05/24 10:19:30;;;;;;;2.00;0.93;;;;;;;15.91;63.64;100988.94;1804202;78;21784;-68
2021/05/24 10:21:58;;;;;;;1.87;0.93;;;;;;;16.11;63.29;100980.67;1798764;78;22257;-68
2021/05/24 10:24:26;;;;;;;2.37;1.00;;;;;;;16.51;61.41;100972.47;1798910;78;21725;-68
2021/05/24 10:26:55;;;;;;;3.00;1.00;;;;;;;16.51;61.41;100972.47;1798873;78;21108;-67
2021/05/24 10:29:22;;;;;;;1.80;0.97;;;;;;;16.58;61.29;100975.63;1774524;78;21085;-68
2021/05/24 10:31:50;;;;;;;3.23;0.90;;;;;;;16.54;61.00;100977.30;1795754;78;21049;-68
2021/05/24 10:34:24;;;;;;;2.73;1.10;;;;;;;16.47;61.61;100984.92;1800422;78;21114;-69
2021/05/24 10:37:17;;;;;;;2.53;1.00;;;;;;;16.45;62.18;100992.48;1788615;78;21092;-69
2021/05/24 10:40:02;;;;;;;2.63;1.10;;;;;;;16.41;61.59;100990.91;1794777;78;21730;-68
2021/05/24 10:42:44;;;;;;;2.63;1.00;;;;;;;16.43;62.18;100991.98;1795185;78;21682;-67
2021/05/24 10:45:22;;;;;;;2.87;1.10;;;;;;;16.53;61.18;100982.44;1786213;78;21097;-67
2021/05/24 10:47:58;;;;;;;2.03;0.83;;;;;;;16.51;61.14;100987.30;1772497;78;21200;-68
2021/05/24 10:50:29;;;;;;;1.80;1.00;;;;;;;16.59;60.49;100986.14;1797760;78;21088;-68
2021/05/24 10:53:01;;;;;;;2.43;1.10;;;;;;;16.67;59.96;100990.09;1794154;78;21104;-68
2021/05/24 10:55:33;;;;;;;1.83;1.07;;;;;;;16.71;60.69;100994.36;1797112;78;21187;-69
2021/05/24 10:58:04;;;;;;;1.63;0.93;;;;;;;16.72;59.60;100983.30;1790805;78;21045;-69
2021/05/24 11:01:03;;;;;;;2.08;0.95;;;;;;;16.77;58.04;100985.16;1792722;78;21172;-68
2021/05/24 11:03:26;;;;;;;1.90;0.80;;;;;;;16.81;58.71;100995.63;1791742;78;21108;-70
2021/05/24 11:06:15;;;;;;;1.93;0.83;;;;;;;16.92;58.18;100997.13;1772750;79;21060;-68
2021/05/24 11:08:51;;;;;;;1.17;0.73;;;;;;;17.02;56.31;100995.65;1806476;77;21547;-68
2021/05/24 11:11:29;;;;;;;1.40;0.80;;;;;;;17.01;56.57;100999.45;1807498;77;21068;-68
2021/05/24 11:14:03;;;;;;;1.43;0.80;;;;;;;17.15;57.75;101016.28;1791261;78;21108;-68
2021/05/24 11:16:30;;;;;;;1.53;0.80;;;;;;;17.32;54.25;100999.03;1791555;78;21088;-67
2021/05/24 11:19:10;;;;;;;1.37;0.80;;;;;;;17.37;54.75;101005.70;1786595;78;21111;-67
2021/05/24 11:21:39;;;;;;;;;;;;;;;17.49;54.31;101007.98;1782690;79;21074;-68
2021/05/24 11:24:23;;;;;;;3.00;1.10;;;;;;;17.62;53.75;100994.29;1778063;78;20772;-67
2021/05/24 11:26:39;;;;;;;2.27;0.90;;;;;;;17.59;54.56;101003.22;1791081;78;21089;-68
2021/05/24 11:29:18;;;;;;;1.07;0.70;;;;;;;17.64;52.78;100994.81;1790803;78;21162;-68
2021/05/24 11:31:53;;;;;;;2.10;0.80;;;;;;;17.65;52.94;100984.25;1779725;79;21061;-68
2021/05/24 11:34:35;;;;;;;2.40;0.90;;;;;;;17.71;51.65;100995.23;1795711;78;21077;-68